sensor_id;sensor_type;location;lat;lon;timestamp;pressure;altitude;pressure_sealevel;temperature;humidity
72038;BME280;59900;50.788;12.904;2023-05-24T00:01:42;97827.44;;;9.29;84.70
72038;BME280;59900;50.788;12.904;2023-05-24T00:04:08;97831.84;;;9.29;84.81
72038;BME280;59900;50.788;12.904;2023-05-24T00:06:35;97832.06;;;9.27;85.14
72038;BME280;59900;50.788;12.904;2023-05-24T00:09:02;97826.97;;;9.26;84.99
72038;BME280;59900;50.788;12.904;2023-05-24T00:11:27;97838.44;;;9.25;84.02
72038;BME280;59900;50.788;12.904;2023-05-24T00:13:52;97835.41;;;9.21;84.59
72038;BME280;59900;50.788;12.904;2023-05-24T00:16:17;97834.13;;;9.17;84.79
72038;BME280;59900;50.788;12.904;2023-05-24T00:18:43;97834.47;;;9.14;84.19
72038;BME280;59900;50.788;12.904;2023-05-24T00:21:12;97828.88;;;9.17;84.76
72038;BME280;59900;50.788;12.904;2023-05-24T00:23:37;97839.34;;;9.17;84.92
72038;BME280;59900;50.788;12.904;2023-05-24T00:26:03;97836.81;;;9.09;83.55
72038;BME280;59900;50.788;12.904;2023-05-24T00:28:29;97840.06;;;9.11;84.39
72038;BME280;59900;50.788;12.904;2023-05-24T00:30:55;97850.44;;;9.05;83.95
72038;BME280;59900;50.788;12.904;2023-05-24T00:33:21;97841.03;;;8.95;83.66
72038;BME280;59900;50.788;12.904;2023-05-24T00:35:47;97843.66;;;8.95;84.67
72038;BME280;59900;50.788;12.904;2023-05-24T00:38:13;97846.28;;;8.95;84.61
72038;BME280;59900;50.788;12.904;2023-05-24T00:40:38;97842.03;;;8.94;83.42
72038;BME280;59900;50.788;12.904;2023-05-24T00:43:03;97841.38;;;8.92;83.94
72038;BME280;59900;50.788;12.904;2023-05-24T00:45:28;97837.31;;;8.90;84.40
72038;BME280;59900;50.788;12.904;2023-05-24T00:47:54;97841.38;;;8.92;84.54
72038;BME280;59900;50.788;12.904;2023-05-24T00:50:19;97846.00;;;8.90;84.58
72038;BME280;59900;50.788;12.904;2023-05-24T00:52:46;97846.19;;;8.89;84.96
72038;BME280;59900;50.788;12.904;2023-05-24T00:55:12;97849.78;;;8.88;84.84
72038;BME280;59900;50.788;12.904;2023-05-24T00:57:37;97847.06;;;8.81;84.56
72038;BME280;59900;50.788;12.904;2023-05-24T01:00:04;97845.00;;;8.77;84.64
72038;BME280;59900;50.788;12.904;2023-05-24T01:02:30;97852.03;;;8.76;85.18
72038;BME280;59900;50.788;12.904;2023-05-24T01:04:57;97849.13;;;8.71;84.69
72038;BME280;59900;50.788;12.904;2023-05-24T01:07:49;97853.34;;;8.72;85.09
72038;BME280;59900;50.788;12.904;2023-05-24T01:13:26;97857.50;;;8.67;84.72
72038;BME280;59900;50.788;12.904;2023-05-24T01:15:58;97852.44;;;8.65;85.26
72038;BME280;59900;50.788;12.904;2023-05-24T01:18:31;97851.16;;;8.61;85.20
72038;BME280;59900;50.788;12.904;2023-05-24T01:27:11;97856.13;;;8.56;85.06
72038;BME280;59900;50.788;12.904;2023-05-24T01:29:37;97856.13;;;8.56;84.52
72038;BME280;59900;50.788;12.904;2023-05-24T01:32:03;97857.81;;;8.49;85.55
72038;BME280;59900;50.788;12.904;2023-05-24T01:34:28;97860.59;;;8.48;85.64
72038;BME280;59900;50.788;12.904;2023-05-24T01:36:54;97858.00;;;8.48;84.99
72038;BME280;59900;50.788;12.904;2023-05-24T01:39:25;97864.56;;;8.43;84.50
72038;BME280;59900;50.788;12.904;2023-05-24T01:42:10;97858.50;;;8.43;84.86
72038;BME280;59900;50.788;12.904;2023-05-24T01:44:43;97859.09;;;8.30;85.05
72038;BME280;59900;50.788;12.904;2023-05-24T01:49:58;97863.00;;;8.26;85.42
72038;BME280;59900;50.788;12.904;2023-05-24T01:52:30;97863.00;;;8.26;85.78
72038;BME280;59900;50.788;12.904;2023-05-24T01:54:56;97865.13;;;8.31;85.98
72038;BME280;59900;50.788;12.904;2023-05-24T01:57:22;97866.59;;;8.33;85.92
72038;BME280;59900;50.788;12.904;2023-05-24T01:59:49;97860.88;;;8.30;85.66
72038;BME280;59900;50.788;12.904;2023-05-24T02:02:15;97874.13;;;8.28;85.38
72038;BME280;59900;50.788;12.904;2023-05-24T02:04:41;97862.53;;;8.23;85.22
72038;BME280;59900;50.788;12.904;2023-05-24T02:07:06;97864.66;;;8.19;85.20
72038;BME280;59900;50.788;12.904;2023-05-24T02:09:31;97860.91;;;8.22;85.64
72038;BME280;59900;50.788;12.904;2023-05-24T02:11:57;97852.94;;;8.15;85.15
72038;BME280;59900;50.788;12.904;2023-05-24T02:14:22;97864.25;;;8.08;85.78
72038;BME280;59900;50.788;12.904;2023-05-24T02:16:48;97861.97;;;8.05;85.49
72038;BME280;59900;50.788;12.904;2023-05-24T02:19:15;97859.88;;;8.00;86.25
72038;BME280;59900;50.788;12.904;2023-05-24T02:21:41;97865.88;;;8.09;86.19
72038;BME280;59900;50.788;12.904;2023-05-24T02:24:06;97857.06;;;8.10;85.59
72038;BME280;59900;50.788;12.904;2023-05-24T02:26:32;97857.25;;;8.00;85.38
72038;BME280;59900;50.788;12.904;2023-05-24T02:28:57;97853.81;;;8.00;86.02
72038;BME280;59900;50.788;12.904;2023-05-24T02:31:22;97851.84;;;8.02;86.27
72038;BME280;59900;50.788;12.904;2023-05-24T02:33:49;97854.13;;;8.05;86.01
72038;BME280;59900;50.788;12.904;2023-05-24T02:36:15;97853.47;;;8.03;86.24
72038;BME280;59900;50.788;12.904;2023-05-24T02:38:40;97848.72;;;8.06;86.24
72038;BME280;59900;50.788;12.904;2023-05-24T02:41:05;97851.22;;;8.00;85.12
72038;BME280;59900;50.788;12.904;2023-05-24T02:43:33;97851.41;;;7.98;85.49
72038;BME280;59900;50.788;12.904;2023-05-24T02:45:58;97845.84;;;7.93;85.00
72038;BME280;59900;50.788;12.904;2023-05-24T02:48:23;97849.47;;;7.92;85.40
72038;BME280;59900;50.788;12.904;2023-05-24T02:50:48;97853.41;;;7.88;85.03
72038;BME280;59900;50.788;12.904;2023-05-24T02:53:14;97845.41;;;7.81;84.92
72038;BME280;59900;50.788;12.904;2023-05-24T02:55:39;97842.69;;;7.75;85.28
72038;BME280;59900;50.788;12.904;2023-05-24T02:58:08;97839.41;;;7.73;86.20
72038;BME280;59900;50.788;12.904;2023-05-24T03:00:33;97843.03;;;7.72;85.95
72038;BME280;59900;50.788;12.904;2023-05-24T03:02:58;97838.28;;;7.67;86.17
72038;BME280;59900;50.788;12.904;2023-05-24T03:05:27;97840.25;;;7.65;85.80
72038;BME280;59900;50.788;12.904;2023-05-24T03:07:52;97839.94;;;7.60;85.63
72038;BME280;59900;50.788;12.904;2023-05-24T03:10:17;97839.59;;;7.63;85.98
72038;BME280;59900;50.788;12.904;2023-05-24T03:12:42;97846.66;;;7.63;85.81
72038;BME280;59900;50.788;12.904;2023-05-24T03:15:08;97843.84;;;7.64;85.04
72038;BME280;59900;50.788;12.904;2023-05-24T03:17:33;97834.56;;;7.62;84.99
72038;BME280;59900;50.788;12.904;2023-05-24T03:19:59;97842.09;;;7.57;84.64
72038;BME280;59900;50.788;12.904;2023-05-24T03:22:25;97844.03;;;7.55;85.10
72038;BME280;59900;50.788;12.904;2023-05-24T03:24:50;97842.28;;;7.47;85.10
72038;BME280;59900;50.788;12.904;2023-05-24T03:27:15;97847.53;;;7.47;85.29
72038;BME280;59900;50.788;12.904;2023-05-24T03:29:40;97851.44;;;7.51;85.73
72038;BME280;59900;50.788;12.904;2023-05-24T03:32:06;97853.53;;;7.56;86.05
72038;BME280;59900;50.788;12.904;2023-05-24T03:34:31;97851.56;;;7.58;85.92
72038;BME280;59900;50.788;12.904;2023-05-24T03:36:56;97847.97;;;7.59;85.37
72038;BME280;59900;50.788;12.904;2023-05-24T03:39:22;97851.22;;;7.61;85.61
72038;BME280;59900;50.788;12.904;2023-05-24T03:41:47;97850.72;;;7.65;85.94
72038;BME280;59900;50.788;12.904;2023-05-24T03:44:12;97855.97;;;7.65;85.19
72038;BME280;59900;50.788;12.904;2023-05-24T03:46:37;97852.34;;;7.66;85.65
72038;BME280;59900;50.788;12.904;2023-05-24T03:49:03;97852.22;;;7.60;84.83
72038;BME280;59900;50.788;12.904;2023-05-24T03:51:28;97851.56;;;7.58;85.01
72038;BME280;59900;50.788;12.904;2023-05-24T03:53:56;97850.78;;;7.57;84.94
72038;BME280;59900;50.788;12.904;2023-05-24T03:56:22;97856.00;;;7.57;85.38
72038;BME280;59900;50.788;12.904;2023-05-24T03:58:47;97852.06;;;7.53;84.03
72038;BME280;59900;50.788;12.904;2023-05-24T04:01:12;97858.13;;;7.54;83.96
72038;BME280;59900;50.788;12.904;2023-05-24T04:03:38;97861.22;;;7.49;84.64
72038;BME280;59900;50.788;12.904;2023-05-24T04:06:05;97864.50;;;7.51;84.61
72038;BME280;59900;50.788;12.904;2023-05-24T04:08:30;97867.47;;;7.48;83.92
72038;BME280;59900;50.788;12.904;2023-05-24T04:10:55;97867.13;;;7.43;83.69
72038;BME280;59900;50.788;12.904;2023-05-24T04:13:21;97874.34;;;7.41;84.31
72038;BME280;59900;50.788;12.904;2023-05-24T04:15:46;97866.78;;;7.46;84.57
72038;BME280;59900;50.788;12.904;2023-05-24T04:18:11;97875.97;;;7.42;84.41
72038;BME280;59900;50.788;12.904;2023-05-24T04:20:36;97872.69;;;7.40;84.12
72038;BME280;59900;50.788;12.904;2023-05-24T04:23:02;97873.69;;;7.39;84.13
72038;BME280;59900;50.788;12.904;2023-05-24T04:25:27;97886.78;;;7.39;84.04
72038;BME280;59900;50.788;12.904;2023-05-24T04:27:53;97883.81;;;7.34;84.17
72038;BME280;59900;50.788;12.904;2023-05-24T04:30:20;97891.22;;;7.30;83.59
72038;BME280;59900;50.788;12.904;2023-05-24T04:32:45;97889.56;;;7.29;83.69
72038;BME280;59900;50.788;12.904;2023-05-24T04:35:11;97891.34;;;7.29;83.99
72038;BME280;59900;50.788;12.904;2023-05-24T04:37:37;97896.25;;;7.32;84.43
72038;BME280;59900;50.788;12.904;2023-05-24T04:40:02;97896.25;;;7.32;83.83
72038;BME280;59900;50.788;12.904;2023-05-24T04:42:31;97892.97;;;7.38;84.33
72038;BME280;59900;50.788;12.904;2023-05-24T04:44:57;97894.91;;;7.44;85.01
72038;BME280;59900;50.788;12.904;2023-05-24T04:47:23;97896.69;;;7.52;84.50
72038;BME280;59900;50.788;12.904;2023-05-24T04:49:48;97897.31;;;7.62;84.82
72038;BME280;59900;50.788;12.904;2023-05-24T04:52:14;97900.56;;;7.72;83.48
72038;BME280;59900;50.788;12.904;2023-05-24T04:54:40;97899.91;;;7.70;83.37
72038;BME280;59900;50.788;12.904;2023-05-24T04:57:05;97910.22;;;7.71;82.60
72038;BME280;59900;50.788;12.904;2023-05-24T04:59:30;97913.66;;;7.72;82.03
72038;BME280;59900;50.788;12.904;2023-05-24T05:01:55;97910.84;;;7.73;82.38
72038;BME280;59900;50.788;12.904;2023-05-24T05:04:21;97916.38;;;7.78;82.87
72038;BME280;59900;50.788;12.904;2023-05-24T05:06:46;97921.47;;;7.80;82.99
72038;BME280;59900;50.788;12.904;2023-05-24T05:09:12;97917.53;;;7.76;81.84
72038;BME280;59900;50.788;12.904;2023-05-24T05:11:39;97933.53;;;7.81;82.58
72038;BME280;59900;50.788;12.904;2023-05-24T05:14:04;97932.22;;;7.85;81.30
72038;BME280;59900;50.788;12.904;2023-05-24T05:16:30;97928.78;;;7.84;80.80
72038;BME280;59900;50.788;12.904;2023-05-24T05:18:56;97936.81;;;7.83;81.81
72038;BME280;59900;50.788;12.904;2023-05-24T05:21:21;97935.16;;;7.90;81.87
72038;BME280;59900;50.788;12.904;2023-05-24T05:23:46;97930.94;;;7.81;80.94
72038;BME280;59900;50.788;12.904;2023-05-24T05:26:12;97933.53;;;7.81;81.07
72038;BME280;59900;50.788;12.904;2023-05-24T05:28:37;97935.03;;;7.83;81.21
72038;BME280;59900;50.788;12.904;2023-05-24T05:31:02;97937.75;;;7.90;81.41
72038;BME280;59900;50.788;12.904;2023-05-24T05:33:30;97935.81;;;7.84;79.91
72038;BME280;59900;50.788;12.904;2023-05-24T05:35:55;97934.53;;;7.80;80.69
72038;BME280;59900;50.788;12.904;2023-05-24T05:38:20;97934.50;;;7.88;81.13
72038;BME280;59900;50.788;12.904;2023-05-24T05:40:45;97945.31;;;7.85;79.36
72038;BME280;59900;50.788;12.904;2023-05-24T05:43:11;97942.53;;;7.86;79.60
72038;BME280;59900;50.788;12.904;2023-05-24T05:45:36;97944.50;;;7.84;79.72
72038;BME280;59900;50.788;12.904;2023-05-24T05:48:01;97946.31;;;7.76;79.74
72038;BME280;59900;50.788;12.904;2023-05-24T05:50:26;97939.59;;;7.81;79.00
72038;BME280;59900;50.788;12.904;2023-05-24T05:52:54;97943.56;;;7.77;78.49
72038;BME280;59900;50.788;12.904;2023-05-24T05:55:20;97948.28;;;7.74;78.50
72038;BME280;59900;50.788;12.904;2023-05-24T05:57:45;97952.56;;;7.67;78.79
72038;BME280;59900;50.788;12.904;2023-05-24T06:00:11;97948.31;;;7.66;78.46
72038;BME280;59900;50.788;12.904;2023-05-24T06:02:36;97947.31;;;7.67;77.90
72038;BME280;59900;50.788;12.904;2023-05-24T06:05:01;97954.19;;;7.68;78.15
72038;BME280;59900;50.788;12.904;2023-05-24T06:07:27;97953.56;;;7.66;77.59
72038;BME280;59900;50.788;12.904;2023-05-24T06:09:52;97958.13;;;7.64;76.79
72038;BME280;59900;50.788;12.904;2023-05-24T06:12:18;97966.13;;;7.70;78.50
72038;BME280;59900;50.788;12.904;2023-05-24T06:14:43;97958.09;;;7.80;77.69
72038;BME280;59900;50.788;12.904;2023-05-24T06:17:08;97970.34;;;7.79;75.83
72038;BME280;59900;50.788;12.904;2023-05-24T06:19:33;97964.97;;;7.73;75.41
72038;BME280;59900;50.788;12.904;2023-05-24T06:21:59;97965.63;;;7.67;75.59
72038;BME280;59900;50.788;12.904;2023-05-24T06:24:24;97966.16;;;7.62;75.82
72038;BME280;59900;50.788;12.904;2023-05-24T06:26:51;97964.81;;;7.66;76.76
72038;BME280;59900;50.788;12.904;2023-05-24T06:29:17;97960.56;;;7.73;76.64
72038;BME280;59900;50.788;12.904;2023-05-24T06:31:45;97966.09;;;7.78;75.88
72038;BME280;59900;50.788;12.904;2023-05-24T06:34:14;97961.84;;;7.85;75.61
72038;BME280;59900;50.788;12.904;2023-05-24T06:36:41;97965.75;;;7.89;73.51
72038;BME280;59900;50.788;12.904;2023-05-24T06:39:11;97970.50;;;7.86;73.73
72038;BME280;59900;50.788;12.904;2023-05-24T06:41:37;97973.13;;;7.86;74.91
72038;BME280;59900;50.788;12.904;2023-05-24T06:44:03;97973.44;;;7.83;74.30
72038;BME280;59900;50.788;12.904;2023-05-24T06:46:28;97970.31;;;7.87;74.55
72038;BME280;59900;50.788;12.904;2023-05-24T06:48:53;97967.56;;;7.89;74.90
72038;BME280;59900;50.788;12.904;2023-05-24T06:51:21;97966.75;;;7.80;74.76
72038;BME280;59900;50.788;12.904;2023-05-24T06:53:47;97972.13;;;7.87;74.82
72038;BME280;59900;50.788;12.904;2023-05-24T06:56:12;97969.66;;;7.94;73.62
72038;BME280;59900;50.788;12.904;2023-05-24T06:58:37;97968.16;;;7.99;74.59
72038;BME280;59900;50.788;12.904;2023-05-24T07:01:02;97981.09;;;8.01;74.65
72038;BME280;59900;50.788;12.904;2023-05-24T07:03:29;97975.19;;;7.99;73.12
72038;BME280;59900;50.788;12.904;2023-05-24T07:05:54;97976.88;;;7.92;73.76
72038;BME280;59900;50.788;12.904;2023-05-24T07:08:21;97983.06;;;7.90;73.66
72038;BME280;59900;50.788;12.904;2023-05-24T07:10:46;97981.91;;;7.93;74.10
72038;BME280;59900;50.788;12.904;2023-05-24T07:13:11;97981.25;;;7.99;74.00
72038;BME280;59900;50.788;12.904;2023-05-24T07:15:42;97979.75;;;8.05;73.08
72038;BME280;59900;50.788;12.904;2023-05-24T07:18:07;97986.44;;;8.15;73.88
72038;BME280;59900;50.788;12.904;2023-05-24T07:20:32;97985.91;;;8.20;72.43
72038;BME280;59900;50.788;12.904;2023-05-24T07:22:57;97980.53;;;8.21;71.47
72038;BME280;59900;50.788;12.904;2023-05-24T07:25:24;97983.59;;;8.25;70.81
72038;BME280;59900;50.788;12.904;2023-05-24T07:27:49;97978.38;;;8.33;70.74
72038;BME280;59900;50.788;12.904;2023-05-24T07:30:15;97984.25;;;8.27;69.95
72038;BME280;59900;50.788;12.904;2023-05-24T07:32:41;97988.84;;;8.33;71.53
72038;BME280;59900;50.788;12.904;2023-05-24T07:35:06;97989.00;;;8.39;72.16
72038;BME280;59900;50.788;12.904;2023-05-24T07:37:31;97993.00;;;8.50;71.15
72038;BME280;59900;50.788;12.904;2023-05-24T07:39:57;97993.78;;;8.59;71.13
72038;BME280;59900;50.788;12.904;2023-05-24T07:42:22;97988.03;;;8.63;71.61
72038;BME280;59900;50.788;12.904;2023-05-24T07:44:47;97994.09;;;8.64;71.69
72038;BME280;59900;50.788;12.904;2023-05-24T07:47:12;97999.19;;;8.57;71.28
72038;BME280;59900;50.788;12.904;2023-05-24T07:49:38;97988.72;;;8.57;72.27
72038;BME280;59900;50.788;12.904;2023-05-24T07:52:03;97993.50;;;8.54;72.28
72038;BME280;59900;50.788;12.904;2023-05-24T07:54:30;97991.84;;;8.53;72.96
72038;BME280;59900;50.788;12.904;2023-05-24T07:56:55;97991.56;;;8.48;73.40
72038;BME280;59900;50.788;12.904;2023-05-24T07:59:21;97994.00;;;8.49;73.23
72038;BME280;59900;50.788;12.904;2023-05-24T08:01:47;97996.03;;;8.39;73.21
72038;BME280;59900;50.788;12.904;2023-05-24T08:04:12;97992.88;;;8.43;72.87
72038;BME280;59900;50.788;12.904;2023-05-24T08:06:37;98001.16;;;8.55;73.13
72038;BME280;59900;50.788;12.904;2023-05-24T08:09:03;97991.81;;;8.61;71.63
72038;BME280;59900;50.788;12.904;2023-05-24T08:11:28;97999.78;;;8.67;72.30
72038;BME280;59900;50.788;12.904;2023-05-24T08:13:54;97996.19;;;8.68;71.18
72038;BME280;59900;50.788;12.904;2023-05-24T08:16:19;98001.09;;;8.71;71.34
72038;BME280;59900;50.788;12.904;2023-05-24T08:18:44;97997.94;;;8.76;71.46
72038;BME280;59900;50.788;12.904;2023-05-24T08:21:10;97990.50;;;8.87;72.29
72038;BME280;59900;50.788;12.904;2023-05-24T08:23:35;97996.81;;;9.01;71.53
72038;BME280;59900;50.788;12.904;2023-05-24T08:26:00;98001.03;;;9.02;70.26
72038;BME280;59900;50.788;12.904;2023-05-24T08:28:26;97990.56;;;9.02;69.77
72038;BME280;59900;50.788;12.904;2023-05-24T08:30:52;98000.88;;;9.04;69.63
72038;BME280;59900;50.788;12.904;2023-05-24T08:33:17;98004.13;;;9.06;68.34
72038;BME280;59900;50.788;12.904;2023-05-24T08:35:42;98000.97;;;9.10;68.56
72038;BME280;59900;50.788;12.904;2023-05-24T08:38:08;97998.31;;;9.18;68.25
72038;BME280;59900;50.788;12.904;2023-05-24T08:40:33;98006.69;;;9.14;69.55
72038;BME280;59900;50.788;12.904;2023-05-24T08:43:00;98000.94;;;9.18;71.01
72038;BME280;59900;50.788;12.904;2023-05-24T08:45:28;98001.50;;;9.28;69.27
72038;BME280;59900;50.788;12.904;2023-05-24T08:47:56;98003.50;;;9.26;68.16
72038;BME280;59900;50.788;12.904;2023-05-24T08:50:22;98007.75;;;9.27;66.24
72038;BME280;59900;50.788;12.904;2023-05-24T08:52:47;98007.06;;;9.33;67.99
72038;BME280;59900;50.788;12.904;2023-05-24T08:55:13;98012.38;;;9.40;66.73
72038;BME280;59900;50.788;12.904;2023-05-24T08:57:39;98010.34;;;9.50;67.74
72038;BME280;59900;50.788;12.904;2023-05-24T09:00:09;98005.25;;;9.48;64.78
72038;BME280;59900;50.788;12.904;2023-05-24T09:02:37;98004.66;;;9.61;66.89
72038;BME280;59900;50.788;12.904;2023-05-24T09:05:03;98013.81;;;9.65;65.73
72038;BME280;59900;50.788;12.904;2023-05-24T09:07:30;98009.66;;;9.71;66.47
72038;BME280;59900;50.788;12.904;2023-05-24T09:09:57;98010.84;;;9.68;66.32
72038;BME280;59900;50.788;12.904;2023-05-24T09:12:26;98013.16;;;9.63;67.74
72038;BME280;59900;50.788;12.904;2023-05-24T09:14:54;98021.00;;;9.71;67.99
72038;BME280;59900;50.788;12.904;2023-05-24T09:17:20;98017.91;;;9.82;66.69
72038;BME280;59900;50.788;12.904;2023-05-24T09:19:48;98017.56;;;9.85;66.49
72038;BME280;59900;50.788;12.904;2023-05-24T09:22:15;98027.13;;;9.78;65.03
72038;BME280;59900;50.788;12.904;2023-05-24T09:24:46;98026.63;;;9.83;64.79
72038;BME280;59900;50.788;12.904;2023-05-24T09:27:14;98019.91;;;9.80;65.08
72038;BME280;59900;50.788;12.904;2023-05-24T09:29:40;98019.56;;;9.83;67.26
72038;BME280;59900;50.788;12.904;2023-05-24T09:32:08;98013.28;;;9.84;64.22
72038;BME280;59900;50.788;12.904;2023-05-24T09:34:41;98022.34;;;9.82;65.04
72038;BME280;59900;50.788;12.904;2023-05-24T09:37:11;98027.69;;;9.74;64.18
72038;BME280;59900;50.788;12.904;2023-05-24T09:39:39;98026.41;;;9.84;64.39
72038;BME280;59900;50.788;12.904;2023-05-24T09:42:04;98026.53;;;9.91;64.19
72038;BME280;59900;50.788;12.904;2023-05-24T09:44:30;98026.91;;;10.02;64.14
72038;BME280;59900;50.788;12.904;2023-05-24T09:47:02;98020.28;;;9.92;63.45
72038;BME280;59900;50.788;12.904;2023-05-24T09:49:31;98035.75;;;9.87;64.50
72038;BME280;59900;50.788;12.904;2023-05-24T09:51:56;98026.97;;;9.80;64.54
72038;BME280;59900;50.788;12.904;2023-05-24T09:54:23;98023.63;;;9.86;64.31
72038;BME280;59900;50.788;12.904;2023-05-24T09:56:50;98021.63;;;9.88;64.13
72038;BME280;59900;50.788;12.904;2023-05-24T09:59:15;98029.63;;;10.09;65.69
72038;BME280;59900;50.788;12.904;2023-05-24T10:01:40;98022.03;;;10.29;64.95
72038;BME280;59900;50.788;12.904;2023-05-24T10:04:06;98033.28;;;10.23;63.79
72038;BME280;59900;50.788;12.904;2023-05-24T10:06:35;98030.03;;;10.21;61.34
72038;BME280;59900;50.788;12.904;2023-05-24T10:09:04;98033.47;;;10.21;61.02
72038;BME280;59900;50.788;12.904;2023-05-24T10:11:34;98035.22;;;10.06;62.02
72038;BME280;59900;50.788;12.904;2023-05-24T10:14:04;98033.22;;;10.08;61.89
72038;BME280;59900;50.788;12.904;2023-05-24T10:16:31;98032.72;;;10.42;64.79
72038;BME280;59900;50.788;12.904;2023-05-24T10:18:56;98045.88;;;10.42;60.78
72038;BME280;59900;50.788;12.904;2023-05-24T10:21:22;98036.97;;;10.43;60.89
72038;BME280;59900;50.788;12.904;2023-05-24T10:23:50;98025.03;;;10.40;60.05
72038;BME280;59900;50.788;12.904;2023-05-24T10:26:16;98026.63;;;10.56;61.33
72038;BME280;59900;50.788;12.904;2023-05-24T10:28:45;98039.03;;;10.77;62.34
72038;BME280;59900;50.788;12.904;2023-05-24T10:31:23;98036.91;;;10.87;61.69
72038;BME280;59900;50.788;12.904;2023-05-24T10:33:49;98037.09;;;10.85;61.04
72038;BME280;59900;50.788;12.904;2023-05-24T10:36:16;98044.63;;;10.88;58.47
72038;BME280;59900;50.788;12.904;2023-05-24T10:38:45;98026.66;;;10.92;58.92
72038;BME280;59900;50.788;12.904;2023-05-24T10:41:11;98021.81;;;10.95;59.83
72038;BME280;59900;50.788;12.904;2023-05-24T10:43:37;98025.75;;;11.20;59.50
72038;BME280;59900;50.788;12.904;2023-05-24T10:46:03;98025.91;;;11.19;57.11
72038;BME280;59900;50.788;12.904;2023-05-24T10:50:54;98014.56;;;11.40;57.81
72038;BME280;59900;50.788;12.904;2023-05-24T10:53:26;98024.94;;;11.48;58.08
72038;BME280;59900;50.788;12.904;2023-05-24T10:55:58;98031.34;;;11.60;59.03
72038;BME280;59900;50.788;12.904;2023-05-24T10:58:43;98026.72;;;11.62;57.85
72038;BME280;59900;50.788;12.904;2023-05-24T11:01:13;98029.84;;;11.51;58.39
72038;BME280;59900;50.788;12.904;2023-05-24T11:03:42;98022.72;;;11.45;57.91
72038;BME280;59900;50.788;12.904;2023-05-24T11:06:08;98023.03;;;11.35;58.51
72038;BME280;59900;50.788;12.904;2023-05-24T11:08:35;98027.84;;;11.32;58.74
72038;BME280;59900;50.788;12.904;2023-05-24T11:11:11;98019.31;;;11.51;59.76
72038;BME280;59900;50.788;12.904;2023-05-24T11:13:36;98028.09;;;11.58;57.25
72038;BME280;59900;50.788;12.904;2023-05-24T11:16:03;98029.03;;;11.71;59.18
72038;BME280;59900;50.788;12.904;2023-05-24T11:18:28;98038.81;;;11.77;56.87
72038;BME280;59900;50.788;12.904;2023-05-24T11:20:53;98031.66;;;11.71;56.92
72038;BME280;59900;50.788;12.904;2023-05-24T11:23:20;98037.41;;;11.60;59.35
72038;BME280;59900;50.788;12.904;2023-05-24T11:25:46;98024.84;;;11.56;58.23
72038;BME280;59900;50.788;12.904;2023-05-24T11:28:12;98024.13;;;11.68;58.63
72038;BME280;59900;50.788;12.904;2023-05-24T11:30:42;98033.41;;;11.64;58.66
72038;BME280;59900;50.788;12.904;2023-05-24T11:33:21;98031.84;;;11.27;59.33
72038;BME280;59900;50.788;12.904;2023-05-24T11:35:49;98032.59;;;11.43;60.62
72038;BME280;59900;50.788;12.904;2023-05-24T11:38:15;98040.44;;;11.57;58.63
72038;BME280;59900;50.788;12.904;2023-05-24T11:40:41;98027.56;;;11.69;56.61
72038;BME280;59900;50.788;12.904;2023-05-24T11:43:11;98023.53;;;11.94;58.79
72038;BME280;59900;50.788;12.904;2023-05-24T11:45:40;98009.25;;;12.10;56.17
72038;BME280;59900;50.788;12.904;2023-05-24T11:48:06;98022.06;;;12.19;55.62
72038;BME280;59900;50.788;12.904;2023-05-24T11:50:31;98019.13;;;12.35;56.09
72038;BME280;59900;50.788;12.904;2023-05-24T11:53:03;98021.47;;;12.58;57.39
72038;BME280;59900;50.788;12.904;2023-05-24T11:55:28;98019.13;;;12.89;56.45
72038;BME280;59900;50.788;12.904;2023-05-24T11:57:57;98022.81;;;13.02;55.43
72038;BME280;59900;50.788;12.904;2023-05-24T12:00:24;98024.22;;;12.91;54.47
72038;BME280;59900;50.788;12.904;2023-05-24T12:02:50;98031.28;;;12.84;55.85
72038;BME280;59900;50.788;12.904;2023-05-24T12:05:17;98026.31;;;12.55;54.75
72038;BME280;59900;50.788;12.904;2023-05-24T12:07:43;98032.84;;;12.59;55.19
72038;BME280;59900;50.788;12.904;2023-05-24T12:10:13;98034.69;;;12.71;53.71
72038;BME280;59900;50.788;12.904;2023-05-24T12:12:42;98023.19;;;12.85;54.75
72038;BME280;59900;50.788;12.904;2023-05-24T12:15:08;98025.13;;;13.11;55.20
72038;BME280;59900;50.788;12.904;2023-05-24T12:17:34;98019.25;;;13.29;54.12
72038;BME280;59900;50.788;12.904;2023-05-24T12:20:01;98021.53;;;13.58;55.36
72038;BME280;59900;50.788;12.904;2023-05-24T12:22:28;98024.16;;;13.78;53.52
72038;BME280;59900;50.788;12.904;2023-05-24T12:24:55;98021.91;;;13.81;51.73
72038;BME280;59900;50.788;12.904;2023-05-24T12:27:26;98022.13;;;13.86;53.28
72038;BME280;59900;50.788;12.904;2023-05-24T12:29:51;98027.59;;;13.91;51.35
72038;BME280;59900;50.788;12.904;2023-05-24T12:32:16;98024.34;;;13.89;52.76
72038;BME280;59900;50.788;12.904;2023-05-24T12:34:42;98014.59;;;14.03;51.50
72038;BME280;59900;50.788;12.904;2023-05-24T12:37:08;98010.50;;;14.14;51.30
72038;BME280;59900;50.788;12.904;2023-05-24T12:39:35;98014.13;;;14.19;51.20
72038;BME280;59900;50.788;12.904;2023-05-24T12:42:01;98009.88;;;14.18;50.17
72038;BME280;59900;50.788;12.904;2023-05-24T12:44:29;98012.56;;;14.05;50.24
72038;BME280;59900;50.788;12.904;2023-05-24T12:46:58;98013.78;;;14.02;51.84
72038;BME280;59900;50.788;12.904;2023-05-24T12:49:24;98012.75;;;14.03;52.45
72038;BME280;59900;50.788;12.904;2023-05-24T12:51:51;98006.84;;;14.08;52.90
72038;BME280;59900;50.788;12.904;2023-05-24T12:54:18;98028.81;;;14.02;52.15
72038;BME280;59900;50.788;12.904;2023-05-24T12:56:44;98030.66;;;13.82;50.89
72038;BME280;59900;50.788;12.904;2023-05-24T12:59:09;98013.97;;;14.14;50.80
72038;BME280;59900;50.788;12.904;2023-05-24T13:01:34;98023.69;;;14.33;49.64
72038;BME280;59900;50.788;12.904;2023-05-24T13:04:00;98023.44;;;14.54;49.31
72038;BME280;59900;50.788;12.904;2023-05-24T13:06:25;98017.34;;;14.92;49.72
72038;BME280;59900;50.788;12.904;2023-05-24T13:08:51;98031.91;;;15.14;48.39